Arlington, Kansas
Current Conditions -  °F | °C
As of 12:35 PM on Sunday 21 Dec 2014 (Local Time) from KHUT Reporting Station
Haze Haze  
Wind Chill: 33°   Ceiling: 400
Heat Index: 42°   Visibility: 2mi
Dew Point: 40°   Wind: 20mph
Humidity: 92%   Direction: 170°S
Pressure: 29.81"   Gusts: NA
Location:  37.9°N, 98.18°W
Report Text: KHUT 211835Z 17017KT 2SM BR OVC004 06/04 A2981 RMK AO2 T00560044
Loading
Personal Weather Stations






























Interactive Weather Map New forecast layout! Learn more

10-Day Weather Forecast

Advertisements
Track Severe Weather on mobile